createdAt,value
2023-03-10T00:00:36.149Z,10.27
2023-03-10T00:03:02.893Z,11.15
2023-03-10T00:05:29.635Z,8.40
2023-03-10T00:07:56.695Z,11.48
2023-03-10T00:10:23.511Z,8.38
2023-03-10T00:12:50.183Z,9.73
2023-03-10T00:15:16.895Z,10.60
2023-03-10T00:17:43.643Z,10.05
2023-03-10T00:20:12.719Z,9.07
2023-03-10T00:22:41.802Z,10.25
2023-03-10T00:25:11.757Z,12.45
2023-03-10T00:27:38.616Z,12.20
2023-03-10T00:30:05.917Z,11.27
2023-03-10T00:32:36.041Z,11.73
2023-03-10T00:35:04.822Z,9.68
2023-03-10T00:37:31.493Z,10.52
2023-03-10T00:39:58.261Z,10.93
2023-03-10T00:42:24.961Z,11.85
2023-03-10T00:44:51.878Z,7.68
2023-03-10T00:47:18.575Z,11.82
2023-03-10T00:49:45.224Z,13.40
2023-03-10T00:52:12.084Z,9.93
2023-03-10T00:54:41.488Z,9.35
2023-03-10T00:57:08.831Z,14.98
2023-03-10T00:59:49.462Z,11.23
2023-03-10T01:02:16.743Z,9.00
2023-03-10T01:04:43.412Z,9.98
2023-03-10T01:07:10.064Z,10.18
2023-03-10T01:09:36.769Z,11.90
2023-03-10T01:12:03.544Z,11.85
2023-03-10T01:14:31.812Z,10.27
2023-03-10T01:16:59.508Z,9.68
2023-03-10T01:19:26.231Z,10.93
2023-03-10T01:21:52.931Z,8.90
2023-03-10T01:24:20.004Z,10.93
2023-03-10T01:26:47.057Z,10.38
2023-03-10T01:29:14.029Z,7.38
2023-03-10T01:31:42.177Z,14.10
2023-03-10T01:34:09.270Z,10.02
2023-03-10T01:36:36.200Z,11.20
2023-03-10T01:39:02.964Z,11.27
2023-03-10T01:41:29.736Z,10.27
2023-03-10T01:43:57.331Z,12.18
2023-03-10T01:46:59.369Z,8.55
2023-03-10T01:49:33.504Z,9.98
2023-03-10T01:52:05.391Z,10.20
2023-03-10T01:54:49.691Z,10.70
2023-03-10T01:57:20.572Z,10.95
2023-03-10T01:59:47.736Z,10.10
2023-03-10T02:02:15.620Z,7.88
2023-03-10T02:04:48.765Z,12.02
2023-03-10T02:07:26.431Z,11.88
2023-03-10T02:09:55.567Z,9.23
2023-03-10T02:12:22.244Z,11.93
2023-03-10T02:14:50.990Z,9.45
2023-03-10T02:17:20.890Z,10.30
2023-03-10T02:20:13.072Z,9.77
2023-03-10T02:22:40.578Z,8.63
2023-03-10T02:25:36.397Z,9.38
2023-03-10T02:28:04.207Z,11.45
2023-03-10T02:30:45.513Z,10.05
2023-03-10T02:33:20.086Z,8.15
2023-03-10T02:35:47.239Z,9.73
2023-03-10T02:38:19.767Z,9.55
2023-03-10T02:40:52.191Z,12.48
2023-03-10T02:43:26.461Z,13.05
2023-03-10T02:46:05.105Z,13.95
2023-03-10T02:48:36.167Z,16.60
2023-03-10T02:51:27.903Z,12.27
2023-03-10T02:53:57.686Z,8.95
2023-03-10T02:56:25.346Z,10.18
2023-03-10T02:58:52.149Z,8.80
2023-03-10T03:01:19.278Z,11.27
2023-03-10T03:03:46.451Z,11.57
2023-03-10T03:06:13.725Z,9.75
2023-03-10T03:08:41.617Z,12.18
2023-03-10T03:11:11.839Z,11.07
2023-03-10T03:13:38.895Z,15.07
2023-03-10T03:16:08.928Z,10.40
2023-03-10T03:18:37.255Z,10.25
2023-03-10T03:21:16.284Z,9.52
2023-03-10T03:23:45.884Z,11.77
2023-03-10T03:26:18.725Z,14.57
2023-03-10T03:28:46.007Z,8.90
2023-03-10T03:31:20.005Z,11.20
2023-03-10T03:33:48.596Z,10.52
2023-03-10T03:36:15.408Z,11.30
2023-03-10T03:38:43.037Z,11.95
2023-03-10T03:41:10.579Z,11.20
2023-03-10T03:43:38.506Z,12.68
2023-03-10T03:46:05.721Z,10.50
2023-03-10T03:48:34.878Z,10.27
2023-03-10T03:51:04.515Z,11.13
2023-03-10T03:53:37.609Z,11.85
2023-03-10T03:56:05.160Z,10.27
2023-03-10T03:58:34.901Z,11.45
2023-03-10T04:01:01.976Z,9.93
2023-03-10T04:03:33.514Z,10.65
2023-03-10T04:06:00.472Z,10.15
2023-03-10T04:08:27.294Z,12.73
2023-03-10T04:10:55.185Z,12.82
2023-03-10T04:13:25.159Z,13.23
2023-03-10T04:16:00.296Z,17.60
2023-03-10T04:18:33.972Z,13.65
2023-03-10T04:21:01.587Z,12.02
2023-03-10T04:23:28.420Z,13.40
2023-03-10T04:25:55.782Z,11.38
2023-03-10T04:28:22.487Z,15.98
2023-03-10T04:30:50.391Z,12.10
2023-03-10T04:33:20.095Z,10.77
2023-03-10T04:35:49.085Z,11.65
2023-03-10T04:38:17.977Z,8.63
2023-03-10T04:40:53.903Z,11.32
2023-03-10T04:43:21.258Z,12.98
2023-03-10T04:45:48.892Z,12.30
2023-03-10T04:48:16.119Z,10.23
2023-03-10T04:50:43.102Z,16.38
2023-03-10T04:53:10.609Z,11.90
2023-03-10T04:55:37.968Z,11.45
2023-03-10T04:58:05.573Z,12.50
2023-03-10T05:00:32.615Z,11.95
2023-03-10T05:03:00.315Z,11.88
2023-03-10T05:05:27.275Z,10.35
2023-03-10T05:07:54.024Z,13.27
2023-03-10T05:10:20.718Z,11.38
2023-03-10T05:12:47.650Z,14.00
2023-03-10T05:15:14.484Z,11.10
2023-03-10T05:17:41.450Z,16.00
2023-03-10T05:20:09.743Z,11.27
2023-03-10T05:22:38.428Z,9.85
2023-03-10T05:25:09.291Z,9.35
2023-03-10T05:27:38.111Z,13.90
2023-03-10T05:30:07.324Z,10.13
2023-03-10T05:32:35.374Z,9.65
2023-03-10T05:35:03.990Z,11.98
2023-03-10T05:37:36.758Z,9.52
2023-03-10T05:40:04.885Z,13.48
2023-03-10T05:42:31.596Z,11.15
2023-03-10T05:44:58.480Z,10.23
2023-03-10T05:47:25.215Z,9.98
2023-03-10T05:49:52.030Z,12.27
2023-03-10T05:52:18.951Z,11.70
2023-03-10T05:54:46.294Z,11.57
2023-03-10T05:57:14.239Z,12.70
2023-03-10T05:59:41.808Z,12.95
2023-03-10T06:02:08.624Z,13.07
2023-03-10T06:04:35.376Z,15.13
2023-03-10T06:07:02.432Z,12.95
2023-03-10T06:09:30.426Z,10.15
2023-03-10T06:11:58.234Z,10.45
2023-03-10T06:14:26.035Z,14.48
2023-03-10T06:16:56.078Z,16.38
2023-03-10T06:19:24.026Z,14.30
2023-03-10T06:21:50.936Z,14.65
2023-03-10T06:24:17.685Z,14.43
2023-03-10T06:26:44.320Z,14.25
2023-03-10T06:29:11.110Z,14.45
2023-03-10T06:31:37.853Z,13.10
2023-03-10T06:34:04.823Z,11.73
2023-03-10T06:36:34.428Z,18.35
2023-03-10T06:39:01.175Z,10.32
2023-03-10T06:41:28.117Z,10.88
2023-03-10T06:43:55.228Z,11.93
2023-03-10T06:46:21.928Z,7.30
2023-03-10T06:48:49.919Z,10.30
2023-03-10T06:51:19.262Z,9.20
2023-03-10T06:53:46.902Z,11.98
2023-03-10T06:56:17.031Z,11.50
2023-03-10T06:58:45.110Z,11.27
2023-03-10T07:01:28.769Z,10.15
2023-03-10T07:03:55.937Z,11.85
2023-03-10T07:06:23.818Z,9.55
2023-03-10T07:08:51.292Z,7.95
2023-03-10T07:11:18.779Z,8.00
2023-03-10T07:13:45.512Z,6.13
2023-03-10T07:16:12.166Z,8.77
2023-03-10T07:18:39.046Z,6.85
2023-03-10T07:21:11.420Z,8.45
2023-03-10T07:23:39.358Z,9.27
2023-03-10T07:26:08.980Z,15.88
2023-03-10T07:28:37.008Z,8.10
2023-03-10T07:31:09.928Z,10.95
2023-03-10T07:33:38.143Z,7.07
2023-03-10T07:36:07.075Z,7.07
2023-03-10T07:38:35.064Z,6.32
2023-03-10T07:41:02.193Z,7.55
2023-03-10T07:43:29.026Z,6.70
2023-03-10T07:45:55.962Z,7.68
2023-03-10T07:48:22.595Z,6.93
2023-03-10T07:50:57.137Z,5.97
2023-03-10T07:53:24.749Z,9.77
2023-03-10T07:55:51.845Z,7.13
2023-03-10T07:58:19.576Z,7.40
2023-03-10T08:00:47.091Z,8.35
2023-03-10T08:03:13.872Z,5.68
2023-03-10T08:05:42.095Z,4.97
2023-03-10T08:08:09.054Z,9.07
2023-03-10T08:10:35.671Z,6.18
2023-03-10T08:13:02.415Z,7.13
2023-03-10T08:15:29.055Z,6.00
2023-03-10T08:17:55.725Z,5.90
2023-03-10T08:20:22.486Z,4.80
2023-03-10T08:22:49.215Z,4.75
2023-03-10T08:25:15.963Z,7.13
2023-03-10T08:27:42.811Z,6.07
2023-03-10T08:30:10.350Z,9.27
2023-03-10T08:32:37.167Z,5.28
2023-03-10T08:35:05.512Z,6.45
2023-03-10T08:37:32.131Z,6.05
2023-03-10T08:39:59.717Z,9.00
2023-03-10T08:42:26.698Z,8.90
2023-03-10T08:44:56.195Z,7.63
2023-03-10T08:47:23.544Z,6.82
2023-03-10T08:49:50.451Z,8.27
2023-03-10T08:52:17.176Z,7.68
2023-03-10T08:54:43.918Z,7.43
2023-03-10T08:57:10.665Z,7.82
2023-03-10T08:59:37.393Z,9.27
2023-03-10T09:02:04.175Z,7.60
2023-03-10T09:04:30.984Z,9.55
2023-03-10T09:06:57.672Z,5.07
2023-03-10T09:09:24.506Z,10.80
2023-03-10T09:11:51.216Z,6.18
2023-03-10T09:14:18.785Z,5.97
2023-03-10T09:16:45.682Z,5.22
2023-03-10T09:19:12.400Z,7.03
2023-03-10T09:21:39.540Z,7.95
2023-03-10T09:24:06.360Z,6.90
2023-03-10T09:26:34.568Z,6.60
2023-03-10T09:29:02.056Z,6.70
2023-03-10T09:31:32.743Z,7.28
2023-03-10T09:33:59.651Z,5.20
2023-03-10T09:36:26.312Z,5.13
2023-03-10T09:38:53.054Z,4.93
2023-03-10T09:42:03.739Z,12.65
2023-03-10T09:45:00.975Z,6.20
2023-03-10T09:47:46.139Z,7.00
2023-03-10T09:50:12.713Z,4.53
2023-03-10T09:52:45.870Z,5.70
2023-03-10T09:55:20.660Z,6.18
2023-03-10T09:57:52.765Z,5.00
2023-03-10T10:00:40.784Z,4.90
2023-03-10T10:03:21.456Z,7.32
2023-03-10T10:05:51.927Z,6.40
2023-03-10T10:08:29.157Z,8.85
2023-03-10T10:10:58.493Z,9.57
2023-03-10T10:13:29.879Z,7.63
2023-03-10T10:16:21.361Z,7.68
2023-03-10T10:19:24.248Z,8.68
2023-03-10T10:22:02.950Z,9.45
2023-03-10T10:24:30.362Z,8.23
2023-03-10T10:26:56.997Z,7.32
2023-03-10T10:29:26.766Z,5.75
2023-03-10T10:32:08.982Z,8.63
2023-03-10T10:34:38.035Z,5.28
2023-03-10T10:37:22.183Z,4.25
2023-03-10T10:39:51.860Z,6.53
2023-03-10T10:42:24.709Z,4.72
2023-03-10T10:45:05.057Z,4.13
2023-03-10T10:47:37.155Z,4.72
2023-03-10T10:50:18.016Z,8.27
2023-03-10T10:52:48.883Z,6.93
2023-03-10T10:55:27.636Z,5.38
2023-03-10T10:58:01.612Z,3.45
2023-03-10T11:00:39.422Z,4.80
2023-03-10T11:03:20.400Z,3.55
2023-03-10T11:05:47.089Z,4.63
2023-03-10T11:08:27.119Z,3.90
2023-03-10T11:11:04.143Z,5.18
2023-03-10T11:13:47.573Z,7.78
2023-03-10T11:16:28.348Z,8.68
2023-03-10T11:19:03.380Z,7.13
2023-03-10T11:21:34.775Z,10.20
2023-03-10T11:24:16.696Z,13.02
2023-03-10T11:27:17.668Z,13.82
2023-03-10T11:30:02.187Z,14.27
2023-03-10T11:32:37.750Z,13.18
2023-03-10T11:38:01.063Z,15.80
2023-03-10T11:40:48.557Z,15.57
2023-03-10T11:43:50.398Z,10.15
2023-03-10T11:46:35.179Z,16.33
2023-03-10T11:49:16.064Z,11.55
2023-03-10T11:51:48.240Z,13.52
2023-03-10T11:54:26.352Z,16.27
2023-03-10T11:56:54.369Z,17.38
2023-03-10T11:59:32.975Z,15.77
2023-03-10T12:02:15.423Z,17.33
2023-03-10T12:05:03.588Z,16.92
2023-03-10T12:07:41.026Z,15.57
2023-03-10T12:10:13.767Z,14.43
2023-03-10T12:12:43.046Z,13.55
2023-03-10T12:15:25.164Z,16.50
2023-03-10T12:17:55.370Z,15.07
2023-03-10T12:20:21.934Z,14.32
2023-03-10T12:22:52.406Z,13.30
2023-03-10T12:25:28.128Z,16.38
2023-03-10T12:28:27.862Z,12.38
2023-03-10T12:31:05.137Z,15.60
2023-03-10T12:33:37.782Z,13.02
2023-03-10T12:36:15.620Z,10.68
2023-03-10T12:39:00.254Z,10.57
2023-03-10T12:41:26.978Z,9.02
2023-03-10T12:44:07.190Z,11.98
2023-03-10T12:46:41.915Z,15.15
2023-03-10T12:49:23.881Z,14.63
2023-03-10T12:52:18.760Z,10.85
2023-03-10T12:55:03.641Z,10.35
2023-03-10T12:57:59.609Z,9.85
2023-03-10T13:00:46.045Z,9.15
2023-03-10T13:03:27.776Z,11.30
2023-03-10T13:06:07.019Z,8.60
2023-03-10T13:08:41.907Z,6.28
2023-03-10T13:11:24.326Z,10.63
2023-03-10T13:13:56.510Z,8.50
2023-03-10T13:16:23.389Z,13.35
2023-03-10T13:18:53.306Z,10.88
2023-03-10T13:21:29.630Z,13.63
2023-03-10T13:23:58.426Z,7.13
2023-03-10T13:26:26.967Z,7.82
2023-03-10T13:28:53.628Z,7.20
2023-03-10T13:31:24.220Z,10.57
2023-03-10T13:33:54.199Z,8.57
2023-03-10T13:36:37.312Z,9.82
2023-03-10T13:39:12.443Z,6.15
2023-03-10T13:42:18.091Z,6.82
2023-03-10T13:44:45.120Z,9.05
2023-03-10T13:47:16.462Z,9.68
2023-03-10T13:49:52.705Z,5.07
2023-03-10T13:52:24.220Z,5.50
2023-03-10T13:54:51.133Z,4.05
2023-03-10T13:57:30.501Z,5.32
2023-03-10T13:59:59.298Z,6.82
2023-03-10T14:02:36.407Z,7.72
2023-03-10T14:05:06.752Z,4.13
2023-03-10T14:07:39.146Z,3.15
2023-03-10T14:10:07.820Z,4.72
2023-03-10T14:12:47.276Z,4.30
2023-03-10T14:15:16.968Z,3.97
2023-03-10T14:17:45.025Z,4.07
2023-03-10T14:20:24.474Z,6.32
2023-03-10T14:22:51.227Z,6.60
2023-03-10T14:25:20.155Z,4.85
2023-03-10T14:27:59.714Z,4.32
2023-03-10T14:30:31.793Z,1.95
2023-03-10T14:33:00.468Z,2.80
2023-03-10T14:35:29.247Z,6.13
2023-03-10T14:37:55.999Z,2.67
2023-03-10T14:40:24.823Z,3.88
2023-03-10T14:42:52.851Z,3.25
2023-03-10T14:45:27.956Z,4.10
2023-03-10T14:47:57.345Z,1.98
2023-03-10T14:50:25.187Z,5.07
2023-03-10T14:52:52.008Z,3.63
2023-03-10T14:55:18.802Z,3.42
2023-03-10T14:57:46.784Z,4.78
2023-03-10T15:00:16.652Z,4.40
2023-03-10T15:02:43.332Z,3.42
2023-03-10T15:05:22.327Z,2.85
2023-03-10T15:07:49.070Z,3.65
2023-03-10T15:10:19.126Z,3.20
2023-03-10T15:12:47.098Z,4.85
2023-03-10T15:15:19.087Z,1.90
2023-03-10T15:17:45.851Z,3.13
2023-03-10T15:20:24.386Z,7.30
2023-03-10T15:22:51.856Z,3.38
2023-03-10T15:25:21.258Z,3.00
2023-03-10T15:27:50.470Z,4.70
2023-03-10T15:30:25.491Z,4.10
2023-03-10T15:32:53.344Z,2.20
2023-03-10T15:35:21.777Z,2.30
2023-03-10T15:37:50.627Z,2.70
2023-03-10T15:40:24.013Z,2.63
2023-03-10T15:42:50.983Z,2.03
2023-03-10T15:45:20.744Z,4.97
2023-03-10T15:47:48.577Z,5.63
2023-03-10T15:50:19.187Z,4.57
2023-03-10T15:52:55.153Z,2.97
2023-03-10T15:55:22.735Z,2.90
2023-03-10T15:57:50.106Z,4.13
2023-03-10T16:00:22.097Z,3.08
2023-03-10T16:02:49.624Z,5.15
2023-03-10T16:05:17.168Z,1.85
2023-03-10T16:07:44.204Z,4.32
2023-03-10T16:10:13.712Z,2.42
2023-03-10T16:12:40.716Z,5.85
2023-03-10T16:15:08.089Z,6.45
2023-03-10T16:17:34.772Z,2.35
2023-03-10T16:20:06.562Z,2.88
2023-03-10T16:22:33.428Z,3.05
2023-03-10T16:25:00.109Z,5.13
2023-03-10T16:27:26.785Z,3.40
2023-03-10T16:29:53.363Z,2.42
2023-03-10T16:32:20.125Z,3.88
2023-03-10T16:34:46.931Z,2.10
2023-03-10T16:37:13.840Z,2.15
2023-03-10T16:39:40.469Z,4.88
2023-03-10T16:42:07.377Z,2.75
2023-03-10T16:44:33.996Z,3.25
2023-03-10T16:47:00.755Z,4.03
2023-03-10T16:49:27.461Z,2.88
2023-03-10T16:51:54.243Z,2.70
2023-03-10T16:54:22.202Z,5.55
2023-03-10T16:56:51.472Z,5.28
2023-03-10T16:59:24.186Z,3.85
2023-03-10T17:01:51.550Z,3.13
2023-03-10T17:04:19.408Z,4.63
2023-03-10T17:06:47.503Z,5.60
2023-03-10T17:09:15.042Z,4.47
2023-03-10T17:11:46.547Z,3.50
2023-03-10T17:14:15.569Z,5.07
2023-03-10T17:16:43.807Z,3.58
2023-03-10T17:19:20.173Z,4.72
2023-03-10T17:21:49.684Z,4.60
2023-03-10T17:24:18.275Z,3.75
2023-03-10T17:26:45.826Z,6.80
2023-03-10T17:29:13.295Z,5.95
2023-03-10T17:31:40.205Z,8.70
2023-03-10T17:34:10.413Z,7.28
2023-03-10T17:36:37.012Z,5.57
2023-03-10T17:39:05.933Z,7.00
2023-03-10T17:41:34.970Z,6.55
2023-03-10T17:44:04.357Z,6.57
2023-03-10T17:46:31.737Z,6.20
2023-03-10T17:48:58.668Z,4.72
2023-03-10T17:51:28.860Z,6.40
2023-03-10T17:53:58.050Z,5.32
2023-03-10T17:56:25.517Z,6.60
2023-03-10T17:58:56.887Z,3.70
2023-03-10T18:01:27.222Z,3.25
2023-03-10T18:03:56.022Z,1.38
2023-03-10T18:06:28.672Z,1.73
2023-03-10T18:08:56.698Z,2.72
2023-03-10T18:11:26.386Z,1.92
2023-03-10T18:13:53.708Z,4.03
2023-03-10T18:16:32.270Z,2.05
2023-03-10T18:18:59.180Z,1.85
2023-03-10T18:21:27.103Z,1.35
2023-03-10T18:23:54.575Z,1.55
2023-03-10T18:26:24.961Z,1.40
2023-03-10T18:28:51.852Z,3.13
2023-03-10T18:31:21.989Z,4.10
2023-03-10T18:33:48.947Z,1.63
2023-03-10T18:36:17.146Z,4.03
2023-03-10T18:38:45.443Z,2.60
2023-03-10T18:41:13.012Z,3.47
2023-03-10T18:43:40.316Z,3.72
2023-03-10T18:46:08.272Z,3.55
2023-03-10T18:48:35.351Z,3.35
2023-03-10T18:51:02.497Z,1.58
2023-03-10T18:53:29.933Z,3.38
2023-03-10T18:55:59.288Z,0.95
2023-03-10T18:58:26.335Z,1.48
2023-03-10T19:00:52.992Z,3.15
2023-03-10T19:03:19.796Z,3.53
2023-03-10T19:05:51.695Z,2.78
2023-03-10T19:08:18.925Z,4.97
2023-03-10T19:10:45.753Z,0.68
2023-03-10T19:13:12.433Z,2.08
2023-03-10T19:15:39.032Z,4.35
2023-03-10T19:18:05.836Z,1.45
2023-03-10T19:20:32.434Z,2.55
2023-03-10T19:22:59.074Z,2.13
2023-03-10T19:25:25.789Z,2.97
2023-03-10T19:27:52.559Z,1.75
2023-03-10T19:30:20.771Z,5.40
2023-03-10T19:32:48.581Z,1.23
2023-03-10T19:35:18.464Z,1.20
2023-03-10T19:37:47.079Z,0.80
2023-03-10T19:40:17.382Z,1.67
2023-03-10T19:42:44.967Z,0.68
2023-03-10T19:45:16.357Z,1.00
2023-03-10T19:47:44.092Z,1.75
2023-03-10T19:50:13.470Z,1.08
2023-03-10T19:52:48.582Z,1.95
2023-03-10T19:55:22.826Z,3.05
2023-03-10T19:57:51.935Z,4.30
2023-03-10T20:00:25.460Z,2.47
2023-03-10T20:02:54.133Z,1.38
2023-03-10T20:05:22.030Z,1.00
2023-03-10T20:07:48.932Z,3.28
2023-03-10T20:10:17.664Z,1.98
2023-03-10T20:12:47.141Z,2.28
2023-03-10T20:15:14.540Z,2.80
2023-03-10T20:17:41.223Z,2.75
2023-03-10T20:20:12.257Z,2.65
2023-03-10T20:22:41.145Z,2.08
2023-03-10T20:25:10.291Z,4.47
2023-03-10T20:27:37.923Z,4.00
2023-03-10T20:30:16.467Z,3.30
2023-03-10T20:32:43.711Z,1.83
2023-03-10T20:35:10.658Z,1.83
2023-03-10T20:37:38.709Z,0.30
2023-03-10T20:40:06.519Z,0.85
2023-03-10T20:42:34.163Z,0.40
2023-03-10T20:45:02.558Z,0.47
2023-03-10T20:47:29.437Z,0.40
2023-03-10T20:49:56.247Z,0.57
2023-03-10T20:52:23.656Z,1.50
2023-03-10T20:54:53.526Z,2.83
2023-03-10T20:57:20.586Z,2.10
2023-03-10T20:59:47.633Z,2.20
2023-03-10T21:02:18.435Z,2.42
2023-03-10T21:04:45.185Z,2.97
2023-03-10T21:07:11.901Z,1.80
2023-03-10T21:09:38.639Z,0.82
2023-03-10T21:12:05.331Z,1.08
2023-03-10T21:14:32.099Z,1.40
2023-03-10T21:16:59.980Z,1.40
2023-03-10T21:19:27.110Z,3.88
2023-03-10T21:21:53.847Z,2.78
2023-03-10T21:24:20.938Z,2.50
2023-03-10T21:26:47.686Z,1.67
2023-03-10T21:29:14.410Z,4.55
2023-03-10T21:31:41.215Z,0.75
2023-03-10T21:34:07.940Z,0.90
2023-03-10T21:36:35.135Z,0.88
2023-03-10T21:39:02.913Z,1.75
2023-03-10T21:41:30.454Z,0.73
2023-03-10T21:43:58.617Z,1.05
2023-03-10T21:46:26.177Z,2.45
2023-03-10T21:48:53.238Z,2.33
2023-03-10T21:51:22.987Z,0.75
2023-03-10T21:53:50.921Z,0.55
2023-03-10T21:56:17.898Z,1.25
2023-03-10T21:58:45.883Z,1.45
2023-03-10T22:01:14.833Z,0.38
2023-03-10T22:03:42.107Z,1.48
2023-03-10T22:06:09.714Z,1.63
2023-03-10T22:08:37.722Z,1.85
2023-03-10T22:11:07.214Z,1.00
2023-03-10T22:13:35.415Z,0.32
2023-03-10T22:16:04.710Z,1.60
2023-03-10T22:18:31.704Z,0.63
2023-03-10T22:20:58.434Z,1.38
2023-03-10T22:23:25.697Z,0.68
2023-03-10T22:25:52.501Z,1.65
2023-03-10T22:28:19.218Z,2.67
2023-03-10T22:30:45.873Z,0.38
2023-03-10T22:33:12.526Z,0.40
2023-03-10T22:35:39.483Z,3.15
2023-03-10T22:38:06.672Z,1.30
2023-03-10T22:40:33.872Z,0.60
2023-03-10T22:43:00.619Z,0.30
2023-03-10T22:45:30.523Z,0.30
2023-03-10T22:48:00.046Z,0.90
2023-03-10T22:50:26.809Z,1.25
2023-03-10T22:52:53.425Z,0.65
2023-03-10T22:55:24.449Z,2.95
2023-03-10T22:57:52.294Z,0.38
2023-03-10T23:00:21.945Z,0.93
2023-03-10T23:02:50.500Z,3.40
2023-03-10T23:05:17.785Z,0.63
2023-03-10T23:07:44.700Z,1.00
2023-03-10T23:10:24.207Z,1.45
2023-03-10T23:12:51.705Z,0.28
2023-03-10T23:15:25.838Z,0.47
2023-03-10T23:17:54.809Z,1.55
2023-03-10T23:20:24.316Z,0.88
2023-03-10T23:22:51.254Z,0.57
2023-03-10T23:25:23.673Z,0.40
2023-03-10T23:27:50.529Z,0.63
2023-03-10T23:30:17.641Z,1.33
2023-03-10T23:32:47.499Z,2.10
2023-03-10T23:35:16.701Z,5.00
2023-03-10T23:37:43.377Z,0.20
2023-03-10T23:40:14.186Z,0.45
2023-03-10T23:42:42.583Z,0.38
2023-03-10T23:45:12.965Z,0.50
2023-03-10T23:47:40.101Z,0.40
2023-03-10T23:50:08.207Z,0.30
2023-03-10T23:52:35.543Z,0.70
2023-03-10T23:55:02.200Z,0.22
2023-03-10T23:57:28.898Z,1.60
2023-03-10T23:59:55.610Z,0.30
